sensor_id;sensor_type;location;lat;lon;timestamp;P1;durP1;ratioP1;P2;durP2;ratioP2
15536;SDS011;7870;52.448;13.270;2023-05-20T00:02:08;2.75;;;1.00;;
15536;SDS011;7870;52.448;13.270;2023-05-20T00:04:34;2.05;;;1.15;;
15536;SDS011;7870;52.448;13.270;2023-05-20T00:07:01;2.10;;;1.25;;
15536;SDS011;7870;52.448;13.270;2023-05-20T00:09:28;2.80;;;1.05;;
15536;SDS011;7870;52.448;13.270;2023-05-20T00:11:55;1.83;;;1.15;;
15536;SDS011;7870;52.448;13.270;2023-05-20T00:14:22;1.73;;;0.95;;
15536;SDS011;7870;52.448;13.270;2023-05-20T00:16:48;1.73;;;1.00;;
15536;SDS011;7870;52.448;13.270;2023-05-20T00:19:15;2.05;;;1.20;;
15536;SDS011;7870;52.448;13.270;2023-05-20T00:21:42;2.60;;;1.23;;
15536;SDS011;7870;52.448;13.270;2023-05-20T00:24:08;3.22;;;1.20;;
15536;SDS011;7870;52.448;13.270;2023-05-20T00:26:35;2.92;;;0.90;;
15536;SDS011;7870;52.448;13.270;2023-05-20T00:29:01;1.38;;;0.98;;
15536;SDS011;7870;52.448;13.270;2023-05-20T00:31:28;1.65;;;0.98;;
15536;SDS011;7870;52.448;13.270;2023-05-20T00:33:55;1.90;;;0.98;;
15536;SDS011;7870;52.448;13.270;2023-05-20T00:36:21;2.40;;;1.00;;
15536;SDS011;7870;52.448;13.270;2023-05-20T00:38:48;5.28;;;1.20;;
15536;SDS011;7870;52.448;13.270;2023-05-20T00:41:14;2.28;;;1.08;;
15536;SDS011;7870;52.448;13.270;2023-05-20T00:43:41;1.50;;;0.90;;
15536;SDS011;7870;52.448;13.270;2023-05-20T00:46:08;2.10;;;1.20;;
15536;SDS011;7870;52.448;13.270;2023-05-20T00:48:38;2.63;;;1.00;;
15536;SDS011;7870;52.448;13.270;2023-05-20T00:51:07;1.88;;;1.00;;
15536;SDS011;7870;52.448;13.270;2023-05-20T00:53:34;2.80;;;1.27;;
15536;SDS011;7870;52.448;13.270;2023-05-20T00:56:02;2.03;;;0.98;;
15536;SDS011;7870;52.448;13.270;2023-05-20T00:58:29;4.70;;;1.83;;
15536;SDS011;7870;52.448;13.270;2023-05-20T01:00:56;2.38;;;1.30;;
15536;SDS011;7870;52.448;13.270;2023-05-20T01:03:23;2.15;;;1.10;;
15536;SDS011;7870;52.448;13.270;2023-05-20T01:05:51;3.70;;;1.08;;
15536;SDS011;7870;52.448;13.270;2023-05-20T01:08:17;2.70;;;1.17;;
15536;SDS011;7870;52.448;13.270;2023-05-20T01:10:44;3.10;;;1.10;;
15536;SDS011;7870;52.448;13.270;2023-05-20T01:13:14;3.15;;;1.10;;
15536;SDS011;7870;52.448;13.270;2023-05-20T01:18:09;2.33;;;1.20;;
15536;SDS011;7870;52.448;13.270;2023-05-20T01:20:36;2.67;;;1.08;;
15536;SDS011;7870;52.448;13.270;2023-05-20T01:23:03;2.35;;;1.02;;
15536;SDS011;7870;52.448;13.270;2023-05-20T01:25:29;1.88;;;1.10;;
15536;SDS011;7870;52.448;13.270;2023-05-20T01:27:56;2.67;;;1.17;;
15536;SDS011;7870;52.448;13.270;2023-05-20T01:30:25;5.20;;;1.13;;
15536;SDS011;7870;52.448;13.270;2023-05-20T01:32:57;3.33;;;1.15;;
15536;SDS011;7870;52.448;13.270;2023-05-20T01:35:28;3.83;;;1.35;;
15536;SDS011;7870;52.448;13.270;2023-05-20T01:37:56;2.78;;;1.13;;
15536;SDS011;7870;52.448;13.270;2023-05-20T01:40:23;2.17;;;1.02;;
15536;SDS011;7870;52.448;13.270;2023-05-20T01:42:50;4.00;;;1.33;;
15536;SDS011;7870;52.448;13.270;2023-05-20T01:45:20;2.00;;;1.00;;
15536;SDS011;7870;52.448;13.270;2023-05-20T01:47:49;3.42;;;0.90;;
15536;SDS011;7870;52.448;13.270;2023-05-20T01:50:15;2.13;;;1.17;;
15536;SDS011;7870;52.448;13.270;2023-05-20T01:52:42;3.63;;;1.15;;
15536;SDS011;7870;52.448;13.270;2023-05-20T01:55:09;1.67;;;0.90;;
15536;SDS011;7870;52.448;13.270;2023-05-20T01:57:35;2.17;;;1.17;;
15536;SDS011;7870;52.448;13.270;2023-05-20T02:00:03;2.53;;;1.20;;
15536;SDS011;7870;52.448;13.270;2023-05-20T02:02:38;3.35;;;1.50;;
15536;SDS011;7870;52.448;13.270;2023-05-20T02:05:07;4.13;;;1.42;;
15536;SDS011;7870;52.448;13.270;2023-05-20T02:07:34;3.22;;;1.50;;
15536;SDS011;7870;52.448;13.270;2023-05-20T02:10:01;2.20;;;1.30;;
15536;SDS011;7870;52.448;13.270;2023-05-20T02:12:27;3.53;;;1.63;;
15536;SDS011;7870;52.448;13.270;2023-05-20T02:14:54;3.92;;;1.48;;
15536;SDS011;7870;52.448;13.270;2023-05-20T02:17:21;4.55;;;1.33;;
15536;SDS011;7870;52.448;13.270;2023-05-20T02:19:47;2.58;;;1.30;;
15536;SDS011;7870;52.448;13.270;2023-05-20T02:22:14;3.10;;;1.65;;
15536;SDS011;7870;52.448;13.270;2023-05-20T02:24:42;2.45;;;1.60;;
15536;SDS011;7870;52.448;13.270;2023-05-20T02:27:11;2.80;;;1.70;;
15536;SDS011;7870;52.448;13.270;2023-05-20T02:29:38;3.38;;;1.70;;
15536;SDS011;7870;52.448;13.270;2023-05-20T02:32:05;4.45;;;1.65;;
15536;SDS011;7870;52.448;13.270;2023-05-20T02:34:31;2.72;;;1.75;;
15536;SDS011;7870;52.448;13.270;2023-05-20T02:36:58;3.03;;;1.60;;
15536;SDS011;7870;52.448;13.270;2023-05-20T02:39:25;2.88;;;1.50;;
15536;SDS011;7870;52.448;13.270;2023-05-20T02:41:53;2.95;;;1.50;;
15536;SDS011;7870;52.448;13.270;2023-05-20T02:44:20;3.58;;;1.67;;
15536;SDS011;7870;52.448;13.270;2023-05-20T02:46:46;3.92;;;1.52;;
15536;SDS011;7870;52.448;13.270;2023-05-20T02:49:13;5.47;;;2.20;;
15536;SDS011;7870;52.448;13.270;2023-05-20T02:51:40;3.97;;;1.92;;
15536;SDS011;7870;52.448;13.270;2023-05-20T02:54:07;4.57;;;1.90;;
15536;SDS011;7870;52.448;13.270;2023-05-20T02:56:33;5.95;;;2.00;;
15536;SDS011;7870;52.448;13.270;2023-05-20T02:59:00;3.22;;;1.90;;
15536;SDS011;7870;52.448;13.270;2023-05-20T03:01:28;4.40;;;1.98;;
15536;SDS011;7870;52.448;13.270;2023-05-20T03:03:55;3.78;;;1.90;;
15536;SDS011;7870;52.448;13.270;2023-05-20T03:06:22;5.22;;;2.15;;
15536;SDS011;7870;52.448;13.270;2023-05-20T03:08:48;4.05;;;1.55;;
15536;SDS011;7870;52.448;13.270;2023-05-20T03:11:15;2.88;;;1.70;;
15536;SDS011;7870;52.448;13.270;2023-05-20T03:13:41;3.22;;;2.10;;
15536;SDS011;7870;52.448;13.270;2023-05-20T03:16:09;4.13;;;1.60;;
15536;SDS011;7870;52.448;13.270;2023-05-20T03:18:38;3.83;;;1.53;;
15536;SDS011;7870;52.448;13.270;2023-05-20T03:21:04;7.07;;;1.83;;
15536;SDS011;7870;52.448;13.270;2023-05-20T03:23:31;3.42;;;1.58;;
15536;SDS011;7870;52.448;13.270;2023-05-20T03:25:58;4.40;;;1.88;;
15536;SDS011;7870;52.448;13.270;2023-05-20T03:28:24;4.80;;;1.75;;
15536;SDS011;7870;52.448;13.270;2023-05-20T03:30:52;4.03;;;1.50;;
15536;SDS011;7870;52.448;13.270;2023-05-20T03:33:19;3.28;;;1.63;;
15536;SDS011;7870;52.448;13.270;2023-05-20T03:35:46;3.03;;;1.60;;
15536;SDS011;7870;52.448;13.270;2023-05-20T03:38:14;3.70;;;1.65;;
15536;SDS011;7870;52.448;13.270;2023-05-20T03:40:41;3.63;;;1.55;;
15536;SDS011;7870;52.448;13.270;2023-05-20T03:43:07;3.10;;;1.83;;
15536;SDS011;7870;52.448;13.270;2023-05-20T03:45:34;3.05;;;1.50;;
15536;SDS011;7870;52.448;13.270;2023-05-20T03:48:05;3.53;;;1.60;;
15536;SDS011;7870;52.448;13.270;2023-05-20T03:50:33;3.38;;;1.63;;
15536;SDS011;7870;52.448;13.270;2023-05-20T03:53:00;6.70;;;1.75;;
15536;SDS011;7870;52.448;13.270;2023-05-20T03:55:33;3.97;;;1.92;;
15536;SDS011;7870;52.448;13.270;2023-05-20T03:58:01;3.28;;;1.42;;
15536;SDS011;7870;52.448;13.270;2023-05-20T04:00:29;3.60;;;1.40;;
15536;SDS011;7870;52.448;13.270;2023-05-20T04:02:57;2.95;;;1.60;;
15536;SDS011;7870;52.448;13.270;2023-05-20T04:05:23;2.72;;;1.35;;
15536;SDS011;7870;52.448;13.270;2023-05-20T04:07:50;3.65;;;1.40;;
15536;SDS011;7870;52.448;13.270;2023-05-20T04:10:18;4.47;;;1.55;;
15536;SDS011;7870;52.448;13.270;2023-05-20T04:12:45;3.28;;;1.27;;
15536;SDS011;7870;52.448;13.270;2023-05-20T04:15:12;3.88;;;1.30;;
15536;SDS011;7870;52.448;13.270;2023-05-20T04:17:48;4.88;;;1.40;;
15536;SDS011;7870;52.448;13.270;2023-05-20T04:20:15;2.47;;;1.42;;
15536;SDS011;7870;52.448;13.270;2023-05-20T04:22:42;3.78;;;1.25;;
15536;SDS011;7870;52.448;13.270;2023-05-20T04:25:09;3.78;;;1.52;;
15536;SDS011;7870;52.448;13.270;2023-05-20T04:27:36;2.28;;;1.20;;
15536;SDS011;7870;52.448;13.270;2023-05-20T04:30:05;3.40;;;1.80;;
15536;SDS011;7870;52.448;13.270;2023-05-20T04:32:37;3.28;;;1.38;;
15536;SDS011;7870;52.448;13.270;2023-05-20T04:35:04;1.92;;;1.13;;
15536;SDS011;7870;52.448;13.270;2023-05-20T04:37:39;3.22;;;1.30;;
15536;SDS011;7870;52.448;13.270;2023-05-20T04:40:07;2.83;;;1.40;;
15536;SDS011;7870;52.448;13.270;2023-05-20T04:42:34;2.55;;;1.15;;
15536;SDS011;7870;52.448;13.270;2023-05-20T04:45:01;3.80;;;1.75;;
15536;SDS011;7870;52.448;13.270;2023-05-20T04:47:30;3.22;;;1.40;;
15536;SDS011;7870;52.448;13.270;2023-05-20T04:49:57;1.98;;;1.08;;
15536;SDS011;7870;52.448;13.270;2023-05-20T04:52:23;2.80;;;1.50;;
15536;SDS011;7870;52.448;13.270;2023-05-20T04:54:51;1.85;;;1.08;;
15536;SDS011;7870;52.448;13.270;2023-05-20T04:57:17;2.03;;;1.10;;
15536;SDS011;7870;52.448;13.270;2023-05-20T04:59:46;3.97;;;1.20;;
15536;SDS011;7870;52.448;13.270;2023-05-20T05:02:13;2.63;;;1.15;;
15536;SDS011;7870;52.448;13.270;2023-05-20T05:04:39;2.08;;;1.23;;
15536;SDS011;7870;52.448;13.270;2023-05-20T05:07:07;2.40;;;1.40;;
15536;SDS011;7870;52.448;13.270;2023-05-20T05:09:33;2.17;;;1.20;;
15536;SDS011;7870;52.448;13.270;2023-05-20T05:12:00;2.03;;;1.17;;
15536;SDS011;7870;52.448;13.270;2023-05-20T05:14:27;1.40;;;0.80;;
15536;SDS011;7870;52.448;13.270;2023-05-20T05:16:54;2.17;;;1.20;;
15536;SDS011;7870;52.448;13.270;2023-05-20T05:19:21;3.22;;;1.25;;
15536;SDS011;7870;52.448;13.270;2023-05-20T05:21:48;2.25;;;1.20;;
15536;SDS011;7870;52.448;13.270;2023-05-20T05:24:15;2.95;;;1.02;;
15536;SDS011;7870;52.448;13.270;2023-05-20T05:26:41;2.58;;;1.27;;
15536;SDS011;7870;52.448;13.270;2023-05-20T05:29:08;2.25;;;1.20;;
15536;SDS011;7870;52.448;13.270;2023-05-20T05:31:36;2.40;;;1.20;;
15536;SDS011;7870;52.448;13.270;2023-05-20T05:34:03;2.58;;;1.30;;
15536;SDS011;7870;52.448;13.270;2023-05-20T05:36:31;2.60;;;1.10;;
15536;SDS011;7870;52.448;13.270;2023-05-20T05:38:59;2.83;;;0.93;;
15536;SDS011;7870;52.448;13.270;2023-05-20T05:41:26;1.88;;;1.13;;
15536;SDS011;7870;52.448;13.270;2023-05-20T05:43:52;2.20;;;1.05;;
15536;SDS011;7870;52.448;13.270;2023-05-20T05:46:19;2.03;;;1.25;;
15536;SDS011;7870;52.448;13.270;2023-05-20T05:48:46;2.05;;;1.13;;
15536;SDS011;7870;52.448;13.270;2023-05-20T05:51:16;3.03;;;1.20;;
15536;SDS011;7870;52.448;13.270;2023-05-20T05:53:44;2.97;;;1.30;;
15536;SDS011;7870;52.448;13.270;2023-05-20T05:56:11;5.25;;;2.38;;
15536;SDS011;7870;52.448;13.270;2023-05-20T05:58:38;4.78;;;2.30;;
15536;SDS011;7870;52.448;13.270;2023-05-20T06:01:05;4.82;;;2.65;;
15536;SDS011;7870;52.448;13.270;2023-05-20T06:03:32;8.93;;;3.10;;
15536;SDS011;7870;52.448;13.270;2023-05-20T06:05:59;6.25;;;2.85;;
15536;SDS011;7870;52.448;13.270;2023-05-20T06:08:25;5.55;;;3.38;;
15536;SDS011;7870;52.448;13.270;2023-05-20T06:10:52;7.45;;;3.65;;
15536;SDS011;7870;52.448;13.270;2023-05-20T06:13:19;7.85;;;4.00;;
15536;SDS011;7870;52.448;13.270;2023-05-20T06:15:47;5.72;;;2.88;;
15536;SDS011;7870;52.448;13.270;2023-05-20T06:18:15;6.55;;;3.50;;
15536;SDS011;7870;52.448;13.270;2023-05-20T06:20:42;8.00;;;3.60;;
15536;SDS011;7870;52.448;13.270;2023-05-20T06:23:08;5.20;;;3.55;;
15536;SDS011;7870;52.448;13.270;2023-05-20T06:25:46;7.05;;;3.55;;
15536;SDS011;7870;52.448;13.270;2023-05-20T06:28:14;5.70;;;3.47;;
15536;SDS011;7870;52.448;13.270;2023-05-20T06:30:40;7.18;;;3.40;;
15536;SDS011;7870;52.448;13.270;2023-05-20T06:33:07;7.10;;;3.67;;
15536;SDS011;7870;52.448;13.270;2023-05-20T06:35:34;7.38;;;3.80;;
15536;SDS011;7870;52.448;13.270;2023-05-20T06:38:03;8.77;;;4.95;;
15536;SDS011;7870;52.448;13.270;2023-05-20T06:40:29;8.23;;;3.97;;
15536;SDS011;7870;52.448;13.270;2023-05-20T06:42:56;8.68;;;4.43;;
15536;SDS011;7870;52.448;13.270;2023-05-20T06:45:43;7.32;;;3.90;;
15536;SDS011;7870;52.448;13.270;2023-05-20T06:48:21;5.75;;;3.47;;
15536;SDS011;7870;52.448;13.270;2023-05-20T06:50:47;8.93;;;3.42;;
15536;SDS011;7870;52.448;13.270;2023-05-20T06:53:14;7.85;;;3.40;;
15536;SDS011;7870;52.448;13.270;2023-05-20T06:55:41;7.20;;;3.92;;
15536;SDS011;7870;52.448;13.270;2023-05-20T06:58:07;7.05;;;3.75;;
15536;SDS011;7870;52.448;13.270;2023-05-20T07:00:34;6.47;;;3.78;;
15536;SDS011;7870;52.448;13.270;2023-05-20T07:03:01;7.68;;;4.03;;
15536;SDS011;7870;52.448;13.270;2023-05-20T07:05:27;7.28;;;4.30;;
15536;SDS011;7870;52.448;13.270;2023-05-20T07:07:54;6.55;;;4.05;;
15536;SDS011;7870;52.448;13.270;2023-05-20T07:10:22;7.47;;;4.13;;
15536;SDS011;7870;52.448;13.270;2023-05-20T07:12:48;6.88;;;4.20;;
15536;SDS011;7870;52.448;13.270;2023-05-20T07:15:15;9.23;;;3.95;;
15536;SDS011;7870;52.448;13.270;2023-05-20T07:17:41;10.43;;;3.80;;
15536;SDS011;7870;52.448;13.270;2023-05-20T07:20:08;8.45;;;4.70;;
15536;SDS011;7870;52.448;13.270;2023-05-20T07:22:35;8.00;;;3.60;;
15536;SDS011;7870;52.448;13.270;2023-05-20T07:25:13;5.63;;;3.70;;
15536;SDS011;7870;52.448;13.270;2023-05-20T07:27:39;7.63;;;3.63;;
15536;SDS011;7870;52.448;13.270;2023-05-20T07:30:06;7.53;;;4.10;;
15536;SDS011;7870;52.448;13.270;2023-05-20T07:32:35;7.15;;;4.03;;
15536;SDS011;7870;52.448;13.270;2023-05-20T07:35:01;9.48;;;4.13;;
15536;SDS011;7870;52.448;13.270;2023-05-20T07:37:28;5.85;;;3.45;;
15536;SDS011;7870;52.448;13.270;2023-05-20T07:39:54;5.38;;;3.80;;
15536;SDS011;7870;52.448;13.270;2023-05-20T07:42:21;7.85;;;4.32;;
15536;SDS011;7870;52.448;13.270;2023-05-20T07:44:52;11.43;;;3.92;;
15536;SDS011;7870;52.448;13.270;2023-05-20T07:47:18;8.68;;;4.82;;
15536;SDS011;7870;52.448;13.270;2023-05-20T07:49:45;7.82;;;3.63;;
15536;SDS011;7870;52.448;13.270;2023-05-20T07:52:12;7.90;;;3.90;;
15536;SDS011;7870;52.448;13.270;2023-05-20T07:54:39;6.95;;;4.15;;
15536;SDS011;7870;52.448;13.270;2023-05-20T07:57:06;6.18;;;4.10;;
15536;SDS011;7870;52.448;13.270;2023-05-20T07:59:33;7.18;;;4.25;;
15536;SDS011;7870;52.448;13.270;2023-05-20T08:01:59;12.02;;;4.15;;
15536;SDS011;7870;52.448;13.270;2023-05-20T08:04:26;5.88;;;3.97;;
15536;SDS011;7870;52.448;13.270;2023-05-20T08:06:55;6.18;;;4.00;;
15536;SDS011;7870;52.448;13.270;2023-05-20T08:09:35;8.55;;;4.25;;
15536;SDS011;7870;52.448;13.270;2023-05-20T08:12:02;5.82;;;4.05;;
15536;SDS011;7870;52.448;13.270;2023-05-20T08:14:29;6.82;;;4.15;;
15536;SDS011;7870;52.448;13.270;2023-05-20T08:16:56;6.78;;;4.43;;
15536;SDS011;7870;52.448;13.270;2023-05-20T08:19:23;7.80;;;4.82;;
15536;SDS011;7870;52.448;13.270;2023-05-20T08:21:49;6.25;;;3.80;;
15536;SDS011;7870;52.448;13.270;2023-05-20T08:24:16;5.50;;;3.92;;
15536;SDS011;7870;52.448;13.270;2023-05-20T08:26:42;5.03;;;3.90;;
15536;SDS011;7870;52.448;13.270;2023-05-20T08:29:09;10.43;;;4.30;;
15536;SDS011;7870;52.448;13.270;2023-05-20T08:31:36;7.22;;;4.80;;
15536;SDS011;7870;52.448;13.270;2023-05-20T08:34:02;8.82;;;4.82;;
15536;SDS011;7870;52.448;13.270;2023-05-20T08:36:29;7.18;;;3.92;;
15536;SDS011;7870;52.448;13.270;2023-05-20T08:38:56;9.10;;;4.20;;
15536;SDS011;7870;52.448;13.270;2023-05-20T08:41:22;7.80;;;3.90;;
15536;SDS011;7870;52.448;13.270;2023-05-20T08:43:50;4.97;;;3.50;;
15536;SDS011;7870;52.448;13.270;2023-05-20T08:46:18;8.27;;;4.03;;
15536;SDS011;7870;52.448;13.270;2023-05-20T08:48:45;5.55;;;4.25;;
15536;SDS011;7870;52.448;13.270;2023-05-20T08:51:12;8.10;;;3.88;;
15536;SDS011;7870;52.448;13.270;2023-05-20T08:53:39;6.70;;;4.05;;
15536;SDS011;7870;52.448;13.270;2023-05-20T08:56:06;5.45;;;3.97;;
15536;SDS011;7870;52.448;13.270;2023-05-20T08:58:33;6.13;;;4.05;;
15536;SDS011;7870;52.448;13.270;2023-05-20T09:01:00;6.85;;;3.67;;
15536;SDS011;7870;52.448;13.270;2023-05-20T09:03:27;8.02;;;3.72;;
15536;SDS011;7870;52.448;13.270;2023-05-20T09:06:01;5.68;;;3.50;;
15536;SDS011;7870;52.448;13.270;2023-05-20T09:08:29;5.30;;;3.60;;
15536;SDS011;7870;52.448;13.270;2023-05-20T09:10:56;6.80;;;3.47;;
15536;SDS011;7870;52.448;13.270;2023-05-20T09:13:22;7.00;;;3.80;;
15536;SDS011;7870;52.448;13.270;2023-05-20T09:15:49;5.85;;;4.10;;
15536;SDS011;7870;52.448;13.270;2023-05-20T09:18:16;7.00;;;4.88;;
15536;SDS011;7870;52.448;13.270;2023-05-20T09:20:45;5.95;;;4.30;;
15536;SDS011;7870;52.448;13.270;2023-05-20T09:23:12;4.60;;;3.40;;
15536;SDS011;7870;52.448;13.270;2023-05-20T09:25:38;6.55;;;4.35;;
15536;SDS011;7870;52.448;13.270;2023-05-20T09:28:06;7.93;;;5.07;;
15536;SDS011;7870;52.448;13.270;2023-05-20T09:30:32;7.55;;;5.45;;
15536;SDS011;7870;52.448;13.270;2023-05-20T09:33:00;8.45;;;4.72;;
15536;SDS011;7870;52.448;13.270;2023-05-20T09:35:28;5.70;;;4.65;;
15536;SDS011;7870;52.448;13.270;2023-05-20T09:37:56;7.93;;;4.72;;
15536;SDS011;7870;52.448;13.270;2023-05-20T09:40:24;7.65;;;4.80;;
15536;SDS011;7870;52.448;13.270;2023-05-20T09:43:04;6.93;;;4.53;;
15536;SDS011;7870;52.448;13.270;2023-05-20T09:45:36;50.22;;;8.55;;
15536;SDS011;7870;52.448;13.270;2023-05-20T09:48:03;14.93;;;5.85;;
15536;SDS011;7870;52.448;13.270;2023-05-20T09:50:34;14.68;;;5.35;;
15536;SDS011;7870;52.448;13.270;2023-05-20T09:53:01;13.27;;;5.00;;
15536;SDS011;7870;52.448;13.270;2023-05-20T09:55:29;13.60;;;4.97;;
15536;SDS011;7870;52.448;13.270;2023-05-20T09:57:56;8.52;;;5.32;;
15536;SDS011;7870;52.448;13.270;2023-05-20T10:00:24;6.57;;;4.93;;
15536;SDS011;7870;52.448;13.270;2023-05-20T10:02:51;7.38;;;5.28;;
15536;SDS011;7870;52.448;13.270;2023-05-20T10:05:21;8.73;;;4.35;;
15536;SDS011;7870;52.448;13.270;2023-05-20T10:16:33;7.80;;;5.03;;
15536;SDS011;7870;52.448;13.270;2023-05-20T10:19:19;7.65;;;5.50;;
15536;SDS011;7870;52.448;13.270;2023-05-20T10:21:56;6.55;;;5.18;;
15536;SDS011;7870;52.448;13.270;2023-05-20T10:24:37;8.25;;;4.65;;
15536;SDS011;7870;52.448;13.270;2023-05-20T10:27:07;9.73;;;6.32;;
15536;SDS011;7870;52.448;13.270;2023-05-20T10:29:45;9.05;;;5.60;;
15536;SDS011;7870;52.448;13.270;2023-05-20T10:32:22;10.02;;;5.97;;
15536;SDS011;7870;52.448;13.270;2023-05-20T10:34:57;11.27;;;6.65;;
15536;SDS011;7870;52.448;13.270;2023-05-20T10:37:28;8.27;;;5.50;;
15536;SDS011;7870;52.448;13.270;2023-05-20T10:40:04;8.70;;;7.80;;
15536;SDS011;7870;52.448;13.270;2023-05-20T10:42:36;9.27;;;8.18;;
15536;SDS011;7870;52.448;13.270;2023-05-20T10:45:03;12.20;;;9.00;;
15536;SDS011;7870;52.448;13.270;2023-05-20T10:47:30;17.30;;;15.50;;
15536;SDS011;7870;52.448;13.270;2023-05-20T10:49:57;19.95;;;12.85;;
15536;SDS011;7870;52.448;13.270;2023-05-20T10:52:23;15.40;;;13.30;;
15536;SDS011;7870;52.448;13.270;2023-05-20T10:54:57;9.63;;;8.55;;
15536;SDS011;7870;52.448;13.270;2023-05-20T10:57:27;16.50;;;10.23;;
15536;SDS011;7870;52.448;13.270;2023-05-20T10:59:54;11.80;;;9.00;;
15536;SDS011;7870;52.448;13.270;2023-05-20T11:02:21;11.45;;;8.85;;
15536;SDS011;7870;52.448;13.270;2023-05-20T11:04:52;36.50;;;10.38;;
15536;SDS011;7870;52.448;13.270;2023-05-20T11:07:25;19.05;;;9.43;;
15536;SDS011;7870;52.448;13.270;2023-05-20T11:09:53;16.75;;;8.05;;
15536;SDS011;7870;52.448;13.270;2023-05-20T11:12:21;16.25;;;7.03;;
15536;SDS011;7870;52.448;13.270;2023-05-20T11:14:49;11.20;;;7.85;;
15536;SDS011;7870;52.448;13.270;2023-05-20T11:17:17;13.18;;;6.78;;
15536;SDS011;7870;52.448;13.270;2023-05-20T11:19:44;11.13;;;8.15;;
15536;SDS011;7870;52.448;13.270;2023-05-20T11:22:11;14.20;;;8.15;;
15536;SDS011;7870;52.448;13.270;2023-05-20T11:24:38;9.80;;;7.20;;
15536;SDS011;7870;52.448;13.270;2023-05-20T11:27:05;15.27;;;7.95;;
15536;SDS011;7870;52.448;13.270;2023-05-20T11:29:31;14.13;;;7.82;;
15536;SDS011;7870;52.448;13.270;2023-05-20T11:31:59;11.52;;;7.38;;
15536;SDS011;7870;52.448;13.270;2023-05-20T11:34:32;8.13;;;6.43;;
15536;SDS011;7870;52.448;13.270;2023-05-20T11:37:00;7.70;;;6.90;;
15536;SDS011;7870;52.448;13.270;2023-05-20T11:39:29;8.73;;;6.65;;
15536;SDS011;7870;52.448;13.270;2023-05-20T11:41:56;9.27;;;6.93;;
15536;SDS011;7870;52.448;13.270;2023-05-20T11:44:24;10.30;;;6.63;;
15536;SDS011;7870;52.448;13.270;2023-05-20T11:46:51;7.20;;;6.45;;
15536;SDS011;7870;52.448;13.270;2023-05-20T11:49:24;9.60;;;6.88;;
15536;SDS011;7870;52.448;13.270;2023-05-20T11:51:51;9.90;;;6.30;;
15536;SDS011;7870;52.448;13.270;2023-05-20T11:54:18;8.52;;;6.32;;
15536;SDS011;7870;52.448;13.270;2023-05-20T11:56:47;12.25;;;6.50;;
15536;SDS011;7870;52.448;13.270;2023-05-20T11:59:14;9.23;;;6.18;;
15536;SDS011;7870;52.448;13.270;2023-05-20T12:01:40;9.98;;;6.68;;
15536;SDS011;7870;52.448;13.270;2023-05-20T12:04:08;8.98;;;6.10;;
15536;SDS011;7870;52.448;13.270;2023-05-20T12:06:35;13.38;;;6.75;;
15536;SDS011;7870;52.448;13.270;2023-05-20T12:09:05;10.52;;;6.35;;
15536;SDS011;7870;52.448;13.270;2023-05-20T12:11:33;9.82;;;6.05;;
15536;SDS011;7870;52.448;13.270;2023-05-20T12:14:01;15.23;;;7.20;;
15536;SDS011;7870;52.448;13.270;2023-05-20T12:16:30;10.70;;;6.50;;
15536;SDS011;7870;52.448;13.270;2023-05-20T12:18:58;10.85;;;6.85;;
15536;SDS011;7870;52.448;13.270;2023-05-20T12:21:26;8.88;;;6.55;;
15536;SDS011;7870;52.448;13.270;2023-05-20T12:23:54;8.07;;;5.82;;
15536;SDS011;7870;52.448;13.270;2023-05-20T12:26:24;14.27;;;7.57;;
15536;SDS011;7870;52.448;13.270;2023-05-20T12:28:52;11.77;;;6.55;;
15536;SDS011;7870;52.448;13.270;2023-05-20T12:31:19;7.10;;;6.07;;
15536;SDS011;7870;52.448;13.270;2023-05-20T12:33:46;9.52;;;6.72;;
15536;SDS011;7870;52.448;13.270;2023-05-20T12:36:12;11.20;;;6.70;;
15536;SDS011;7870;52.448;13.270;2023-05-20T12:38:39;8.85;;;6.10;;
15536;SDS011;7870;52.448;13.270;2023-05-20T12:41:06;9.15;;;6.00;;
15536;SDS011;7870;52.448;13.270;2023-05-20T12:43:34;8.35;;;6.55;;
15536;SDS011;7870;52.448;13.270;2023-05-20T12:46:02;14.13;;;6.47;;
15536;SDS011;7870;52.448;13.270;2023-05-20T12:48:29;8.90;;;6.13;;
15536;SDS011;7870;52.448;13.270;2023-05-20T12:50:55;8.38;;;6.57;;
15536;SDS011;7870;52.448;13.270;2023-05-20T12:53:22;7.38;;;6.55;;
15536;SDS011;7870;52.448;13.270;2023-05-20T12:55:48;9.20;;;6.40;;
15536;SDS011;7870;52.448;13.270;2023-05-20T12:58:15;7.18;;;6.30;;
15536;SDS011;7870;52.448;13.270;2023-05-20T13:00:41;6.82;;;6.13;;
15536;SDS011;7870;52.448;13.270;2023-05-20T13:03:08;7.80;;;6.45;;
15536;SDS011;7870;52.448;13.270;2023-05-20T13:05:35;8.10;;;6.20;;
15536;SDS011;7870;52.448;13.270;2023-05-20T13:08:01;6.53;;;5.93;;
15536;SDS011;7870;52.448;13.270;2023-05-20T13:10:28;8.52;;;6.38;;
15536;SDS011;7870;52.448;13.270;2023-05-20T13:12:54;10.00;;;5.88;;
15536;SDS011;7870;52.448;13.270;2023-05-20T13:15:21;7.28;;;6.45;;
15536;SDS011;7870;52.448;13.270;2023-05-20T13:17:48;9.80;;;6.93;;
15536;SDS011;7870;52.448;13.270;2023-05-20T13:20:14;8.52;;;6.13;;
15536;SDS011;7870;52.448;13.270;2023-05-20T13:22:44;9.90;;;5.95;;
15536;SDS011;7870;52.448;13.270;2023-05-20T13:25:11;8.02;;;6.35;;
15536;SDS011;7870;52.448;13.270;2023-05-20T13:27:38;8.07;;;6.78;;
15536;SDS011;7870;52.448;13.270;2023-05-20T13:30:04;9.13;;;7.13;;
15536;SDS011;7870;52.448;13.270;2023-05-20T13:32:32;9.35;;;6.97;;
15536;SDS011;7870;52.448;13.270;2023-05-20T13:34:59;13.23;;;6.88;;
15536;SDS011;7870;52.448;13.270;2023-05-20T13:37:25;14.43;;;6.78;;
15536;SDS011;7870;52.448;13.270;2023-05-20T13:39:52;10.45;;;6.20;;
15536;SDS011;7870;52.448;13.270;2023-05-20T13:42:18;10.10;;;6.60;;
15536;SDS011;7870;52.448;13.270;2023-05-20T13:44:46;11.25;;;6.63;;
15536;SDS011;7870;52.448;13.270;2023-05-20T13:47:12;6.78;;;6.05;;
15536;SDS011;7870;52.448;13.270;2023-05-20T13:49:39;8.95;;;5.97;;
15536;SDS011;7870;52.448;13.270;2023-05-20T13:52:05;8.75;;;6.65;;
15536;SDS011;7870;52.448;13.270;2023-05-20T13:54:33;8.43;;;5.88;;
15536;SDS011;7870;52.448;13.270;2023-05-20T13:56:59;8.38;;;6.68;;
15536;SDS011;7870;52.448;13.270;2023-05-20T13:59:27;6.75;;;6.03;;
15536;SDS011;7870;52.448;13.270;2023-05-20T14:01:53;9.88;;;5.65;;
15536;SDS011;7870;52.448;13.270;2023-05-20T14:04:20;10.20;;;6.10;;
15536;SDS011;7870;52.448;13.270;2023-05-20T14:06:47;14.65;;;6.22;;
15536;SDS011;7870;52.448;13.270;2023-05-20T14:09:14;8.20;;;5.75;;
15536;SDS011;7870;52.448;13.270;2023-05-20T14:11:41;9.68;;;5.90;;
15536;SDS011;7870;52.448;13.270;2023-05-20T14:14:07;9.57;;;5.65;;
15536;SDS011;7870;52.448;13.270;2023-05-20T14:16:34;13.93;;;6.72;;
15536;SDS011;7870;52.448;13.270;2023-05-20T14:19:00;11.75;;;6.13;;
15536;SDS011;7870;52.448;13.270;2023-05-20T14:21:27;12.70;;;5.80;;
15536;SDS011;7870;52.448;13.270;2023-05-20T14:23:53;9.52;;;6.38;;
15536;SDS011;7870;52.448;13.270;2023-05-20T14:26:20;6.47;;;5.32;;
15536;SDS011;7870;52.448;13.270;2023-05-20T14:28:47;10.75;;;5.97;;
15536;SDS011;7870;52.448;13.270;2023-05-20T14:31:14;11.50;;;5.72;;
15536;SDS011;7870;52.448;13.270;2023-05-20T14:33:41;13.13;;;6.00;;
15536;SDS011;7870;52.448;13.270;2023-05-20T14:36:07;10.05;;;6.38;;
15536;SDS011;7870;52.448;13.270;2023-05-20T14:38:34;8.98;;;5.68;;
15536;SDS011;7870;52.448;13.270;2023-05-20T14:41:00;6.60;;;5.28;;
15536;SDS011;7870;52.448;13.270;2023-05-20T14:43:27;10.73;;;5.88;;
15536;SDS011;7870;52.448;13.270;2023-05-20T14:45:53;12.77;;;5.07;;
15536;SDS011;7870;52.448;13.270;2023-05-20T14:48:20;13.20;;;5.60;;
15536;SDS011;7870;52.448;13.270;2023-05-20T14:50:47;10.35;;;5.93;;
15536;SDS011;7870;52.448;13.270;2023-05-20T14:53:15;10.45;;;6.55;;
15536;SDS011;7870;52.448;13.270;2023-05-20T14:55:42;12.13;;;5.57;;
15536;SDS011;7870;52.448;13.270;2023-05-20T14:58:08;10.45;;;5.38;;
15536;SDS011;7870;52.448;13.270;2023-05-20T15:00:35;15.98;;;7.45;;